createdAt,value
2023-02-28T00:01:16.883Z,6.27
2023-02-28T00:03:43.662Z,6.32
2023-02-28T00:06:10.343Z,6.41
2023-02-28T00:08:36.950Z,6.29
2023-02-28T00:11:03.622Z,6.31
2023-02-28T00:13:30.221Z,6.35
2023-02-28T00:15:56.858Z,6.35
2023-02-28T00:18:23.459Z,6.19
2023-02-28T00:20:50.089Z,6.13
2023-02-28T00:23:16.700Z,6.16
2023-02-28T00:25:43.332Z,6.11
2023-02-28T00:28:09.921Z,6.08
2023-02-28T00:30:36.647Z,6.05
2023-02-28T00:33:03.271Z,6.08
2023-02-28T00:35:29.939Z,6.10
2023-02-28T00:37:56.660Z,6.19
2023-02-28T00:40:23.316Z,6.17
2023-02-28T00:42:50.016Z,6.22
2023-02-28T00:45:16.633Z,6.05
2023-02-28T00:47:43.310Z,6.09
2023-02-28T00:50:10.101Z,6.08
2023-02-28T00:52:36.771Z,6.12
2023-02-28T00:55:03.409Z,5.91
2023-02-28T00:57:30.109Z,5.76
2023-02-28T00:59:56.772Z,5.81
2023-02-28T01:02:23.379Z,5.99
2023-02-28T01:04:50.005Z,5.88
2023-02-28T01:07:16.664Z,5.85
2023-02-28T01:09:43.347Z,5.94
2023-02-28T01:12:10.001Z,6.04
2023-02-28T01:14:36.597Z,5.96
2023-02-28T01:17:03.286Z,5.97
2023-02-28T01:19:29.900Z,5.96
2023-02-28T01:21:56.508Z,6.01
2023-02-28T01:24:23.168Z,5.99
2023-02-28T01:26:50.053Z,6.05
2023-02-28T01:29:16.687Z,6.20
2023-02-28T01:31:43.317Z,6.17
2023-02-28T01:34:09.975Z,6.12
2023-02-28T01:36:36.564Z,6.10
2023-02-28T01:39:03.222Z,5.86
2023-02-28T01:41:30.173Z,5.84
2023-02-28T01:43:57.028Z,6.01
2023-02-28T01:46:23.727Z,6.08
2023-02-28T01:48:50.386Z,6.12
2023-02-28T01:51:17.035Z,6.24
2023-02-28T01:53:43.767Z,6.26
2023-02-28T01:56:10.381Z,6.30
2023-02-28T01:58:37.046Z,6.37
2023-02-28T02:01:03.678Z,6.39
2023-02-28T02:03:30.320Z,6.33
2023-02-28T02:05:56.924Z,6.36
2023-02-28T02:08:23.523Z,6.43
2023-02-28T02:10:51.269Z,6.44
2023-02-28T02:13:17.917Z,6.39
2023-02-28T02:15:44.696Z,6.41
2023-02-28T02:18:11.555Z,6.49
2023-02-28T02:20:38.195Z,6.53
2023-02-28T02:23:04.837Z,6.54
2023-02-28T02:25:31.437Z,6.55
2023-02-28T02:27:58.132Z,6.56
2023-02-28T02:30:24.780Z,6.63
2023-02-28T02:32:51.414Z,6.62
2023-02-28T02:35:18.018Z,6.59
2023-02-28T02:37:44.644Z,6.51
2023-02-28T02:40:11.306Z,6.48
2023-02-28T02:42:37.939Z,6.47
2023-02-28T02:45:04.589Z,6.47
2023-02-28T02:47:31.287Z,6.42
2023-02-28T02:49:57.938Z,6.39
2023-02-28T02:52:24.647Z,6.42
2023-02-28T02:54:51.333Z,6.45
2023-02-28T02:57:18.014Z,6.38
2023-02-28T02:59:44.682Z,6.37
2023-02-28T03:02:11.348Z,6.47
2023-02-28T03:04:38.051Z,6.47
2023-02-28T03:09:45.095Z,6.28
2023-02-28T03:12:11.782Z,6.21
2023-02-28T03:14:38.409Z,6.26
2023-02-28T03:17:05.048Z,6.32
2023-02-28T03:19:31.690Z,6.39
2023-02-28T03:21:58.284Z,6.40
2023-02-28T03:24:24.946Z,6.44
2023-02-28T03:26:51.629Z,6.45
2023-02-28T03:29:18.329Z,6.43
2023-02-28T03:31:45.072Z,6.44
2023-02-28T03:34:11.812Z,6.35
2023-02-28T03:36:38.415Z,6.35
2023-02-28T03:39:05.030Z,6.33
2023-02-28T03:41:34.091Z,6.40
2023-02-28T03:44:00.717Z,6.42
2023-02-28T03:46:27.377Z,6.37
2023-02-28T03:48:54.005Z,6.34
2023-02-28T03:51:20.691Z,6.37
2023-02-28T03:53:47.303Z,6.42
2023-02-28T03:56:13.977Z,6.39
2023-02-28T03:58:40.655Z,6.43
2023-02-28T04:01:07.297Z,6.25
2023-02-28T04:03:33.938Z,6.25
2023-02-28T04:06:00.622Z,6.37
2023-02-28T04:08:27.321Z,6.24
2023-02-28T04:10:53.989Z,5.94
2023-02-28T04:13:20.616Z,5.82
2023-02-28T04:15:47.296Z,6.01
2023-02-28T04:18:13.950Z,6.19
2023-02-28T04:20:40.621Z,6.31
2023-02-28T04:23:07.361Z,6.38
2023-02-28T04:25:34.028Z,6.44
2023-02-28T04:28:00.754Z,6.21
2023-02-28T04:30:27.427Z,6.18
2023-02-28T04:32:54.085Z,6.29
2023-02-28T04:35:20.767Z,6.24
2023-02-28T04:37:47.395Z,6.09
2023-02-28T04:40:14.018Z,5.88
2023-02-28T04:42:40.666Z,5.86
2023-02-28T04:45:07.393Z,5.99
2023-02-28T04:47:34.043Z,5.94
2023-02-28T04:50:00.697Z,5.90
2023-02-28T04:52:27.402Z,6.02
2023-02-28T04:54:54.105Z,5.70
2023-02-28T04:57:20.741Z,5.90
2023-02-28T04:59:47.373Z,6.03
2023-02-28T05:02:14.133Z,5.94
2023-02-28T05:04:40.796Z,5.90
2023-02-28T05:07:07.481Z,6.07
2023-02-28T05:09:34.175Z,6.11
2023-02-28T05:12:00.836Z,6.24
2023-02-28T05:14:27.513Z,6.28
2023-02-28T05:16:54.165Z,6.21
2023-02-28T05:19:21.074Z,6.20
2023-02-28T05:21:47.695Z,6.24
2023-02-28T05:24:14.385Z,6.15
2023-02-28T05:26:41.072Z,6.23
2023-02-28T05:29:07.782Z,6.31
2023-02-28T05:31:34.479Z,6.34
2023-02-28T05:34:01.133Z,6.15
2023-02-28T05:36:27.841Z,6.33
2023-02-28T05:38:54.452Z,6.41
2023-02-28T05:41:21.143Z,6.34
2023-02-28T05:43:47.768Z,6.43
2023-02-28T05:46:14.455Z,6.42
2023-02-28T05:48:41.108Z,6.37
2023-02-28T05:51:07.797Z,6.41
2023-02-28T05:53:34.524Z,6.17
2023-02-28T05:56:01.139Z,6.16
2023-02-28T05:58:27.818Z,6.15
2023-02-28T06:00:54.568Z,6.27
2023-02-28T06:03:21.265Z,6.26
2023-02-28T06:05:47.955Z,6.12
2023-02-28T06:08:14.618Z,6.44
2023-02-28T06:10:41.355Z,6.42
2023-02-28T06:13:07.963Z,6.32
2023-02-28T06:15:34.626Z,6.28
2023-02-28T06:18:01.296Z,5.92
2023-02-28T06:20:27.960Z,6.09
2023-02-28T06:22:54.567Z,6.03
2023-02-28T06:25:21.190Z,5.82
2023-02-28T06:27:47.851Z,5.73
2023-02-28T06:30:14.503Z,5.70
2023-02-28T06:32:41.190Z,5.61
2023-02-28T06:35:07.796Z,5.59
2023-02-28T06:37:34.432Z,5.91
2023-02-28T06:40:01.078Z,5.76
2023-02-28T06:42:27.704Z,5.48
2023-02-28T06:44:54.339Z,5.26
2023-02-28T06:47:21.009Z,5.39
2023-02-28T06:49:47.619Z,5.36
2023-02-28T06:52:14.329Z,5.36
2023-02-28T06:54:40.925Z,5.42
2023-02-28T06:57:07.566Z,5.47
2023-02-28T06:59:34.233Z,5.68
2023-02-28T07:02:00.940Z,5.48
2023-02-28T07:04:30.516Z,5.40
2023-02-28T07:06:57.158Z,5.42
2023-02-28T07:09:27.050Z,5.54
2023-02-28T07:11:53.683Z,5.36
2023-02-28T07:14:20.383Z,5.37
2023-02-28T07:16:47.033Z,5.60
2023-02-28T07:19:13.648Z,5.31
2023-02-28T07:21:40.296Z,5.11
2023-02-28T07:24:06.943Z,5.47
2023-02-28T07:26:33.578Z,5.41
2023-02-28T07:29:00.343Z,5.41
2023-02-28T07:31:27.093Z,5.69
2023-02-28T07:33:53.857Z,5.69
2023-02-28T07:36:20.475Z,6.13
2023-02-28T07:38:48.488Z,6.04
2023-02-28T07:41:15.269Z,6.22
2023-02-28T07:43:41.937Z,6.45
2023-02-28T07:46:08.683Z,6.30
2023-02-28T07:48:35.406Z,6.19
2023-02-28T07:51:02.102Z,6.18
2023-02-28T07:53:28.764Z,6.05
2023-02-28T07:55:56.790Z,5.97
2023-02-28T07:58:23.610Z,6.25
2023-02-28T08:00:50.345Z,6.42
2023-02-28T08:03:17.007Z,6.38
2023-02-28T08:05:43.688Z,6.12
2023-02-28T08:08:10.289Z,5.98
2023-02-28T08:10:37.006Z,5.92
2023-02-28T08:13:03.653Z,6.47
2023-02-28T08:15:30.324Z,6.82
2023-02-28T08:17:56.958Z,6.89
2023-02-28T08:20:23.668Z,7.10
2023-02-28T08:22:50.550Z,7.32
2023-02-28T08:25:17.206Z,7.56
2023-02-28T08:27:43.839Z,7.60
2023-02-28T08:30:10.551Z,7.63
2023-02-28T08:32:37.312Z,7.43
2023-02-28T08:35:03.973Z,7.42
2023-02-28T08:37:30.569Z,7.52
2023-02-28T08:39:57.317Z,7.38
2023-02-28T08:42:23.910Z,7.43
2023-02-28T08:44:50.591Z,6.77
2023-02-28T08:50:01.621Z,6.29
2023-02-28T08:52:28.227Z,6.23
2023-02-28T08:54:55.161Z,6.99
2023-02-28T08:57:21.824Z,7.09
2023-02-28T08:59:50.694Z,7.30
2023-02-28T09:02:17.362Z,7.09
2023-02-28T09:04:44.052Z,6.99
2023-02-28T09:07:10.656Z,6.04
2023-02-28T09:09:37.315Z,6.64
2023-02-28T09:12:04.000Z,7.41
2023-02-28T09:14:30.690Z,7.81
2023-02-28T09:16:57.579Z,7.82
2023-02-28T09:19:24.196Z,7.09
2023-02-28T09:21:50.879Z,6.79
2023-02-28T09:24:17.525Z,7.33
2023-02-28T09:26:56.344Z,7.22
2023-02-28T09:29:30.230Z,6.61
2023-02-28T09:31:56.914Z,6.84
2023-02-28T09:34:23.781Z,6.91
2023-02-28T09:36:51.061Z,7.09
2023-02-28T09:39:18.140Z,7.77
2023-02-28T09:41:44.788Z,8.24
2023-02-28T09:44:11.391Z,8.44
2023-02-28T09:46:38.412Z,8.48
2023-02-28T09:49:05.248Z,8.06
2023-02-28T09:51:32.072Z,7.90
2023-02-28T09:54:01.938Z,8.34
2023-02-28T09:56:29.215Z,8.43
2023-02-28T09:58:55.988Z,8.75
2023-02-28T10:01:22.628Z,8.68
2023-02-28T10:03:49.359Z,7.93
2023-02-28T10:06:15.974Z,8.36
2023-02-28T10:08:42.612Z,8.18
2023-02-28T10:11:09.321Z,8.51
2023-02-28T10:13:35.992Z,8.97
2023-02-28T10:16:02.739Z,8.67
2023-02-28T10:18:29.394Z,9.23
2023-02-28T10:20:56.155Z,9.37
2023-02-28T10:23:22.826Z,9.19
2023-02-28T10:25:49.457Z,9.22
2023-02-28T10:28:16.102Z,9.44
2023-02-28T10:30:42.855Z,8.96
2023-02-28T10:33:09.582Z,9.35
2023-02-28T10:35:36.276Z,9.67
2023-02-28T10:38:02.933Z,9.88
2023-02-28T10:40:29.688Z,9.92
2023-02-28T10:42:56.293Z,10.02
2023-02-28T10:45:22.967Z,10.28
2023-02-28T10:47:49.646Z,9.18
2023-02-28T10:50:16.275Z,9.82
2023-02-28T10:52:42.965Z,10.24
2023-02-28T10:55:09.617Z,10.07
2023-02-28T10:57:36.329Z,10.33
2023-02-28T11:00:03.013Z,9.11
2023-02-28T11:02:29.706Z,8.42
2023-02-28T11:04:56.416Z,8.45
2023-02-28T11:07:24.407Z,7.87
2023-02-28T11:09:52.456Z,8.32
2023-02-28T11:12:19.078Z,9.35
2023-02-28T11:14:45.751Z,9.37
2023-02-28T11:17:12.419Z,10.04
2023-02-28T11:19:39.125Z,10.14
2023-02-28T11:22:05.798Z,8.81
2023-02-28T11:24:32.461Z,9.41
2023-02-28T11:26:59.143Z,9.94
2023-02-28T11:29:25.795Z,10.07
2023-02-28T11:31:52.454Z,10.38
2023-02-28T11:34:19.237Z,10.71
2023-02-28T11:36:45.936Z,10.71
2023-02-28T11:39:12.560Z,10.77
2023-02-28T11:41:41.331Z,10.35
2023-02-28T11:44:08.165Z,10.12
2023-02-28T11:46:34.854Z,9.98
2023-02-28T11:49:01.545Z,9.42
2023-02-28T11:51:28.472Z,9.59
2023-02-28T11:53:55.277Z,10.37
2023-02-28T11:56:21.931Z,9.81
2023-02-28T11:58:48.670Z,10.31
2023-02-28T12:01:15.332Z,10.02
2023-02-28T12:03:42.013Z,10.33
2023-02-28T12:06:08.673Z,9.84
2023-02-28T12:08:35.496Z,10.28
2023-02-28T12:11:02.175Z,10.77
2023-02-28T12:13:28.834Z,11.00
2023-02-28T12:15:55.473Z,11.19
2023-02-28T12:18:22.094Z,9.74
2023-02-28T12:20:48.737Z,9.59
2023-02-28T12:23:15.460Z,9.76
2023-02-28T12:25:42.131Z,10.43
2023-02-28T12:28:08.784Z,10.75
2023-02-28T12:30:35.469Z,10.94
2023-02-28T12:33:02.082Z,11.34
2023-02-28T12:35:28.703Z,10.57
2023-02-28T12:37:55.323Z,10.74
2023-02-28T12:40:22.073Z,10.56
2023-02-28T12:42:48.761Z,11.08
2023-02-28T12:45:15.352Z,11.18
2023-02-28T12:47:42.079Z,10.78
2023-02-28T12:50:08.755Z,10.90
2023-02-28T12:52:35.415Z,10.30
2023-02-28T12:55:02.057Z,9.58
2023-02-28T12:57:28.735Z,9.17
2023-02-28T12:59:55.404Z,9.05
2023-02-28T13:02:22.115Z,8.78
2023-02-28T13:04:48.891Z,8.81
2023-02-28T13:07:15.540Z,9.81
2023-02-28T13:09:42.205Z,10.17
2023-02-28T13:12:08.848Z,10.58
2023-02-28T13:14:35.463Z,10.88
2023-02-28T13:17:02.202Z,11.20
2023-02-28T13:19:28.960Z,11.57
2023-02-28T13:21:55.581Z,11.62
2023-02-28T13:24:22.263Z,11.74
2023-02-28T13:26:48.974Z,10.96
2023-02-28T13:29:15.709Z,11.21
2023-02-28T13:31:42.359Z,11.21
2023-02-28T13:34:08.954Z,11.45
2023-02-28T13:36:35.617Z,11.80
2023-02-28T13:39:02.283Z,11.04
2023-02-28T13:41:29.379Z,11.00
2023-02-28T13:43:56.212Z,10.86
2023-02-28T13:46:22.982Z,11.30
2023-02-28T13:48:49.764Z,11.38
2023-02-28T13:51:16.426Z,11.36
2023-02-28T13:53:43.161Z,11.22
2023-02-28T13:56:10.025Z,11.20
2023-02-28T13:58:36.672Z,11.56
2023-02-28T14:01:03.413Z,11.89
2023-02-28T14:03:30.086Z,11.73
2023-02-28T14:05:56.814Z,11.99
2023-02-28T14:08:23.528Z,11.83
2023-02-28T14:10:50.200Z,11.74
2023-02-28T14:13:16.838Z,12.14
2023-02-28T14:15:43.505Z,12.09
2023-02-28T14:18:10.208Z,12.30
2023-02-28T14:20:36.841Z,11.93
2023-02-28T14:23:03.455Z,12.01
2023-02-28T14:25:30.174Z,12.47
2023-02-28T14:27:56.843Z,12.63
2023-02-28T14:30:23.521Z,12.29
2023-02-28T14:32:50.155Z,10.65
2023-02-28T14:35:16.750Z,10.64
2023-02-28T14:37:43.431Z,11.20
2023-02-28T14:40:10.108Z,11.55
2023-02-28T14:42:36.777Z,11.61
2023-02-28T14:45:03.469Z,11.09
2023-02-28T14:47:30.122Z,11.65
2023-02-28T14:49:56.759Z,12.28
2023-02-28T14:52:23.557Z,11.92
2023-02-28T14:54:50.236Z,12.04
2023-02-28T14:57:16.951Z,12.35
2023-02-28T14:59:43.573Z,11.45
2023-02-28T15:02:10.200Z,11.72
2023-02-28T15:04:36.921Z,11.39
2023-02-28T15:07:03.534Z,11.42
2023-02-28T15:09:30.209Z,11.55
2023-02-28T15:11:56.864Z,11.71
2023-02-28T15:14:23.524Z,12.05
2023-02-28T15:16:50.191Z,11.95
2023-02-28T15:19:16.901Z,11.97
2023-02-28T15:21:43.574Z,12.05
2023-02-28T15:24:10.267Z,12.15
2023-02-28T15:26:37.434Z,11.28
2023-02-28T15:29:04.082Z,11.13
2023-02-28T15:31:39.047Z,10.94
2023-02-28T15:34:13.540Z,10.72
2023-02-28T15:36:40.288Z,11.07
2023-02-28T15:39:16.003Z,11.17
2023-02-28T15:41:42.974Z,11.33
2023-02-28T15:44:09.857Z,11.29
2023-02-28T15:46:36.496Z,11.31
2023-02-28T15:49:03.145Z,11.39
2023-02-28T15:51:30.046Z,11.32
2023-02-28T15:53:56.770Z,11.35
2023-02-28T15:56:24.049Z,11.13
2023-02-28T15:58:50.700Z,11.14
2023-02-28T16:01:17.313Z,11.08
2023-02-28T16:03:43.957Z,10.95
2023-02-28T16:06:10.706Z,10.70
2023-02-28T16:08:37.326Z,10.70
2023-02-28T16:11:04.066Z,10.68
2023-02-28T16:13:30.741Z,10.71
2023-02-28T16:15:57.380Z,10.54
2023-02-28T16:18:24.066Z,10.59
2023-02-28T16:20:50.724Z,10.61
2023-02-28T16:23:17.412Z,10.60
2023-02-28T16:25:44.361Z,10.48
2023-02-28T16:28:11.472Z,10.49
2023-02-28T16:30:38.236Z,10.41
2023-02-28T16:33:05.020Z,10.42
2023-02-28T16:35:31.718Z,10.34
2023-02-28T16:38:00.774Z,10.34
2023-02-28T16:40:27.463Z,10.46
2023-02-28T16:42:54.099Z,10.28
2023-02-28T16:45:20.768Z,10.33
2023-02-28T16:47:47.463Z,10.24
2023-02-28T16:50:14.201Z,10.21
2023-02-28T16:52:40.903Z,10.23
2023-02-28T16:55:07.564Z,10.31
2023-02-28T16:57:34.227Z,10.30
2023-02-28T17:00:00.885Z,10.27
2023-02-28T17:02:27.688Z,10.24
2023-02-28T17:04:54.458Z,10.11
2023-02-28T17:07:21.134Z,10.05
2023-02-28T17:09:47.765Z,10.07
2023-02-28T17:12:14.428Z,10.10
2023-02-28T17:14:41.206Z,9.64
2023-02-28T17:17:07.876Z,9.66
2023-02-28T17:19:34.615Z,9.68
2023-02-28T17:22:01.350Z,9.86
2023-02-28T17:24:31.341Z,9.91
2023-02-28T17:26:58.351Z,9.62
2023-02-28T17:29:24.983Z,9.60
2023-02-28T17:31:51.674Z,9.62
2023-02-28T17:34:18.381Z,9.47
2023-02-28T17:36:45.080Z,9.51
2023-02-28T17:39:11.733Z,9.65
2023-02-28T17:41:38.381Z,9.18
2023-02-28T17:44:05.013Z,9.15
2023-02-28T17:46:32.038Z,9.43
2023-02-28T17:48:58.910Z,9.45
2023-02-28T17:51:25.578Z,9.58
2023-02-28T17:53:52.210Z,9.63
2023-02-28T17:56:18.921Z,9.62
2023-02-28T17:58:45.585Z,9.45
2023-02-28T18:01:12.305Z,9.44
2023-02-28T18:03:39.024Z,9.25
2023-02-28T18:06:05.706Z,9.34
2023-02-28T18:08:32.422Z,9.37
2023-02-28T18:10:59.086Z,9.37
2023-02-28T18:13:25.721Z,9.51
2023-02-28T18:15:52.389Z,9.57
2023-02-28T18:18:21.036Z,9.66
2023-02-28T18:20:48.554Z,9.61
2023-02-28T18:23:15.293Z,9.68
2023-02-28T18:25:41.982Z,9.67
2023-02-28T18:28:08.694Z,9.66
2023-02-28T18:30:35.395Z,9.67
2023-02-28T18:33:02.149Z,9.70
2023-02-28T18:35:28.844Z,9.68
2023-02-28T18:37:55.538Z,9.57
2023-02-28T18:40:22.232Z,9.50
2023-02-28T18:42:48.878Z,9.54
2023-02-28T18:45:15.511Z,9.41
2023-02-28T18:47:42.107Z,9.32
2023-02-28T18:50:08.734Z,9.42
2023-02-28T18:52:35.410Z,9.45
2023-02-28T18:55:02.026Z,9.22
2023-02-28T18:57:28.686Z,8.79
2023-02-28T18:59:55.368Z,8.92
2023-02-28T19:02:24.114Z,8.71
2023-02-28T19:04:50.726Z,8.47
2023-02-28T19:07:17.407Z,8.73
2023-02-28T19:09:44.106Z,8.93
2023-02-28T19:12:10.787Z,9.06
2023-02-28T19:14:37.388Z,9.15
2023-02-28T19:17:04.048Z,9.13
2023-02-28T19:19:30.701Z,9.18
2023-02-28T19:21:57.413Z,9.19
2023-02-28T19:24:24.032Z,9.22
2023-02-28T19:26:50.701Z,9.20
2023-02-28T19:29:17.368Z,9.20
2023-02-28T19:31:44.080Z,9.21
2023-02-28T19:34:10.749Z,9.23
2023-02-28T19:36:37.458Z,9.28
2023-02-28T19:39:04.143Z,9.30
2023-02-28T19:41:31.064Z,9.28
2023-02-28T19:43:57.927Z,9.31
2023-02-28T19:46:24.559Z,9.31
2023-02-28T19:48:51.351Z,9.26
2023-02-28T19:53:49.584Z,9.24
2023-02-28T19:56:16.206Z,9.22
2023-02-28T19:58:42.903Z,9.24
2023-02-28T20:01:09.643Z,9.24
2023-02-28T20:03:36.412Z,9.15
2023-02-28T20:06:03.112Z,9.08
2023-02-28T20:08:29.902Z,8.93
2023-02-28T20:10:56.563Z,8.71
2023-02-28T20:13:28.099Z,8.76
2023-02-28T20:15:55.096Z,8.87
2023-02-28T20:18:21.847Z,8.99
2023-02-28T20:20:48.637Z,8.91
2023-02-28T20:23:15.419Z,8.93
2023-02-28T20:25:42.380Z,8.80
2023-02-28T20:28:09.055Z,8.71
2023-02-28T20:30:35.998Z,8.76
2023-02-28T20:33:02.755Z,8.83
2023-02-28T20:35:29.690Z,8.84
2023-02-28T20:37:56.376Z,8.83
2023-02-28T20:40:23.016Z,8.96
2023-02-28T20:42:49.711Z,8.95
2023-02-28T20:45:16.483Z,9.00
2023-02-28T20:47:43.150Z,8.93
2023-02-28T20:50:09.963Z,8.71
2023-02-28T20:52:36.686Z,8.55
2023-02-28T20:55:03.343Z,8.58
2023-02-28T20:57:30.025Z,8.54
2023-02-28T20:59:56.663Z,8.45
2023-02-28T21:02:23.349Z,8.52
2023-02-28T21:04:50.084Z,8.41
2023-02-28T21:07:16.765Z,8.43
2023-02-28T21:09:43.399Z,8.38
2023-02-28T21:12:10.086Z,8.47
2023-02-28T21:14:36.747Z,8.62
2023-02-28T21:17:03.395Z,8.60
2023-02-28T21:19:29.993Z,8.63
2023-02-28T21:21:56.661Z,8.57
2023-02-28T21:24:23.324Z,8.52
2023-02-28T21:26:50.220Z,8.49
2023-02-28T21:29:17.912Z,8.58
2023-02-28T21:31:44.564Z,8.66
2023-02-28T21:34:11.233Z,8.74
2023-02-28T21:36:37.919Z,8.72
2023-02-28T21:39:04.666Z,8.73
2023-02-28T21:41:31.398Z,8.69
2023-02-28T21:43:58.069Z,8.67
2023-02-28T21:46:24.791Z,8.66
2023-02-28T21:48:51.486Z,8.60
2023-02-28T21:51:18.103Z,8.63
2023-02-28T21:53:44.764Z,8.63
2023-02-28T21:56:11.465Z,8.63
2023-02-28T21:58:38.138Z,8.63
2023-02-28T22:01:04.850Z,8.65
2023-02-28T22:03:31.473Z,8.66
2023-02-28T22:05:58.145Z,8.68
2023-02-28T22:08:24.816Z,8.60
2023-02-28T22:10:51.469Z,8.47
2023-02-28T22:13:18.145Z,8.49
2023-02-28T22:15:44.835Z,8.55
2023-02-28T22:18:11.504Z,8.42
2023-02-28T22:20:38.179Z,8.37
2023-02-28T22:23:04.822Z,8.42
2023-02-28T22:25:31.407Z,8.46
2023-02-28T22:27:58.044Z,8.49
2023-02-28T22:30:24.639Z,8.53
2023-02-28T22:32:51.266Z,8.55
2023-02-28T22:35:17.959Z,8.47
2023-02-28T22:37:44.583Z,8.45
2023-02-28T22:40:11.178Z,8.43
2023-02-28T22:42:37.799Z,8.36
2023-02-28T22:45:04.452Z,8.39
2023-02-28T22:47:31.172Z,8.43
2023-02-28T22:49:57.780Z,8.43
2023-02-28T22:52:24.422Z,8.41
2023-02-28T22:54:51.073Z,8.12
2023-02-28T22:57:17.764Z,8.19
2023-02-28T22:59:44.424Z,8.31
2023-02-28T23:02:11.053Z,8.25
2023-02-28T23:04:37.717Z,8.19
2023-02-28T23:07:04.340Z,8.15
2023-02-28T23:09:30.981Z,7.94
2023-02-28T23:11:57.596Z,7.91
2023-02-28T23:14:24.240Z,7.91
2023-02-28T23:16:50.906Z,7.86
2023-02-28T23:19:17.591Z,7.64
2023-02-28T23:21:44.280Z,7.67
2023-02-28T23:24:10.904Z,7.72
2023-02-28T23:26:37.618Z,7.73
2023-02-28T23:29:04.361Z,7.76
2023-02-28T23:31:31.028Z,7.70
2023-02-28T23:33:57.712Z,7.62
2023-02-28T23:36:24.392Z,7.69
2023-02-28T23:38:51.022Z,7.71
2023-02-28T23:41:17.676Z,7.63
2023-02-28T23:43:44.347Z,7.68
2023-02-28T23:46:11.016Z,7.62
2023-02-28T23:48:37.659Z,7.69
2023-02-28T23:51:04.310Z,7.75
2023-02-28T23:53:30.987Z,7.56
2023-02-28T23:55:57.659Z,7.18
2023-02-28T23:58:24.367Z,7.37
